createdAt,value
2023-01-22T00:03:14.238Z,0.20
2023-01-22T00:08:16.296Z,0.00
2023-01-22T00:13:19.278Z,0.00
2023-01-22T00:18:21.557Z,0.10
2023-01-22T00:23:24.842Z,0.00
2023-01-22T00:28:27.192Z,-0.10
2023-01-22T00:33:29.803Z,0.00
2023-01-22T00:38:31.866Z,0.00
2023-01-22T00:43:36.080Z,0.10
2023-01-22T00:48:38.372Z,-0.10
2023-01-22T00:53:41.463Z,-0.20
2023-01-22T00:58:43.977Z,-0.20
2023-01-22T01:03:46.448Z,-0.10
2023-01-22T01:08:49.677Z,-0.20
2023-01-22T01:13:52.904Z,-0.20
2023-01-22T01:19:00.581Z,-0.10
2023-01-22T01:24:04.034Z,0.00
2023-01-22T01:29:09.979Z,0.00
2023-01-22T01:34:12.166Z,-0.10
2023-01-22T01:39:14.226Z,-0.10
2023-01-22T01:44:22.386Z,0.10
2023-01-22T01:49:42.070Z,0.00
2023-01-22T01:54:48.544Z,-0.10
2023-01-22T01:59:52.630Z,-0.20
2023-01-22T02:04:54.833Z,-0.30
2023-01-22T02:09:57.695Z,-0.30
2023-01-22T02:15:03.644Z,-0.20
2023-01-22T02:20:07.249Z,-0.10
2023-01-22T02:25:09.703Z,-0.10
2023-01-22T02:30:13.302Z,-0.10
2023-01-22T02:35:15.361Z,-0.10
2023-01-22T02:40:18.507Z,0.00
2023-01-22T02:45:20.831Z,0.00
2023-01-22T02:50:22.847Z,0.00
2023-01-22T02:55:25.267Z,0.00
2023-01-22T03:00:27.927Z,0.00
2023-01-22T03:05:31.256Z,0.00
2023-01-22T03:10:33.316Z,0.10
2023-01-22T03:15:57.771Z,-0.10
2023-01-22T03:21:18.856Z,-0.20
2023-01-22T03:26:22.937Z,-0.20
2023-01-22T03:31:25.290Z,-0.30
2023-01-22T03:36:27.572Z,-0.20
2023-01-22T03:41:34.040Z,-0.30
2023-01-22T03:46:38.114Z,-0.30
2023-01-22T03:51:40.715Z,-0.30
2023-01-22T03:56:43.195Z,-0.20
2023-01-22T04:01:55.895Z,-0.10
2023-01-22T04:06:58.038Z,-0.10
2023-01-22T04:12:00.158Z,-0.20
2023-01-22T04:17:02.921Z,-0.40
2023-01-22T04:22:25.791Z,-0.40
2023-01-22T04:27:28.060Z,-0.50
2023-01-22T04:32:31.086Z,-0.50
2023-01-22T04:37:59.533Z,-0.40
2023-01-22T04:43:05.916Z,-0.50
2023-01-22T04:48:11.342Z,-0.50
2023-01-22T04:53:15.655Z,-0.50
2023-01-22T04:58:18.490Z,-0.60
2023-01-22T05:03:20.705Z,-0.50
2023-01-22T05:08:23.035Z,-0.50
2023-01-22T05:13:26.490Z,-0.60
2023-01-22T05:18:28.804Z,-0.60
2023-01-22T05:23:30.986Z,-0.60
2023-01-22T05:28:33.355Z,-0.60
2023-01-22T05:33:53.043Z,-0.70
2023-01-22T05:38:57.318Z,-0.70
2023-01-22T05:44:02.809Z,-0.70
2023-01-22T05:49:05.744Z,-0.70
2023-01-22T05:54:09.893Z,-0.90
2023-01-22T05:59:14.748Z,-0.80
2023-01-22T06:04:20.510Z,-0.70
2023-01-22T06:09:25.571Z,-0.80
2023-01-22T06:14:27.879Z,-0.90
2023-01-22T06:19:32.804Z,-1.00
2023-01-22T06:24:35.145Z,-1.10
2023-01-22T06:29:40.110Z,-1.00
2023-01-22T06:34:42.827Z,-1.00
2023-01-22T06:39:44.983Z,-1.00
2023-01-22T06:45:07.519Z,-1.00
2023-01-22T06:50:11.777Z,-1.00
2023-01-22T06:55:13.882Z,-0.80
2023-01-22T07:00:16.915Z,-0.80
2023-01-22T07:05:20.137Z,-0.80
2023-01-22T07:10:22.885Z,-0.80
2023-01-22T07:15:26.557Z,-0.60
2023-01-22T07:20:28.628Z,-0.60
2023-01-22T07:25:30.601Z,-0.60
2023-01-22T07:30:33.211Z,-0.80
2023-01-22T07:35:35.247Z,-0.90
2023-01-22T07:40:37.365Z,-1.00
2023-01-22T07:45:39.399Z,-0.90
2023-01-22T07:50:41.667Z,-1.00
2023-01-22T07:55:43.798Z,-0.90
2023-01-22T08:00:45.883Z,-0.70
2023-01-22T08:05:47.950Z,-0.80
2023-01-22T08:10:50.074Z,-0.70
2023-01-22T08:15:52.296Z,-0.50
2023-01-22T08:20:54.604Z,-0.40
2023-01-22T08:26:04.163Z,-0.30
2023-01-22T08:31:09.383Z,-0.30
2023-01-22T08:36:13.448Z,-0.20
2023-01-22T08:41:15.839Z,-0.20
2023-01-22T08:46:18.010Z,-0.20
2023-01-22T08:51:22.681Z,-0.20
2023-01-22T08:56:24.890Z,0.00
2023-01-22T09:01:27.635Z,0.10
2023-01-22T09:06:29.715Z,0.30
2023-01-22T09:11:32.160Z,0.40
2023-01-22T09:16:34.553Z,0.40
2023-01-22T09:21:37.666Z,0.30
2023-01-22T09:26:40.733Z,0.50
2023-01-22T09:31:42.827Z,0.50
2023-01-22T09:36:45.923Z,0.60
2023-01-22T09:41:52.622Z,0.70
2023-01-22T09:47:11.727Z,0.70
2023-01-22T09:52:13.832Z,0.90
2023-01-22T09:57:30.642Z,1.00
2023-01-22T10:02:42.818Z,1.00
2023-01-22T10:07:51.435Z,1.10
2023-01-22T10:13:17.187Z,1.20
2023-01-22T10:18:37.979Z,1.30
2023-01-22T10:23:40.132Z,1.40
2023-01-22T10:28:50.489Z,1.50
2023-01-22T10:34:00.045Z,1.50
2023-01-22T10:39:14.154Z,1.50
2023-01-22T10:44:16.282Z,1.60
2023-01-22T10:49:28.220Z,1.70
2023-01-22T10:54:41.651Z,1.80
2023-01-22T10:59:53.348Z,1.90
2023-01-22T11:04:56.539Z,2.00
2023-01-22T11:10:20.252Z,2.10
2023-01-22T11:15:48.357Z,2.20
2023-01-22T11:20:58.923Z,2.50
2023-01-22T11:26:19.629Z,2.70
2023-01-22T11:31:39.350Z,2.80
2023-01-22T11:37:02.917Z,3.00
2023-01-22T11:42:41.601Z,3.20
2023-01-22T11:47:52.318Z,3.30
2023-01-22T11:53:09.081Z,3.50
2023-01-22T11:58:19.997Z,3.50
2023-01-22T12:03:40.873Z,3.60
2023-01-22T12:08:52.001Z,3.60
2023-01-22T12:14:18.038Z,3.60
2023-01-22T12:19:39.395Z,3.60
2023-01-22T12:24:55.781Z,3.70
2023-01-22T12:30:26.018Z,3.60
2023-01-22T12:35:31.550Z,3.70
2023-01-22T12:40:59.455Z,3.80
2023-01-22T12:46:02.595Z,3.90
2023-01-22T12:51:04.870Z,3.90
2023-01-22T12:56:10.224Z,3.90
2023-01-22T13:01:12.311Z,3.90
2023-01-22T13:06:30.684Z,3.90
2023-01-22T13:11:38.474Z,3.90
2023-01-22T13:16:41.491Z,4.00
2023-01-22T13:21:44.211Z,4.10
2023-01-22T13:27:00.077Z,4.10
2023-01-22T13:32:16.141Z,4.20
2023-01-22T13:37:26.118Z,4.30
2023-01-22T13:42:29.583Z,4.40
2023-01-22T13:47:35.940Z,4.50
2023-01-22T13:52:38.007Z,4.50
2023-01-22T13:57:48.523Z,4.60
2023-01-22T14:02:51.117Z,4.60
2023-01-22T14:08:13.724Z,4.70
2023-01-22T14:13:15.913Z,4.90
2023-01-22T14:18:18.614Z,5.30
2023-01-22T14:23:20.740Z,5.80
2023-01-22T14:28:24.747Z,6.30
2023-01-22T14:33:31.180Z,6.60
2023-01-22T14:38:33.221Z,6.30
2023-01-22T14:43:35.831Z,6.00
2023-01-22T14:48:38.806Z,6.10
2023-01-22T14:53:40.989Z,6.30
2023-01-22T14:58:43.113Z,6.20
2023-01-22T15:03:45.278Z,5.80
2023-01-22T15:08:47.445Z,5.50
2023-01-22T15:13:50.164Z,5.30
2023-01-22T15:18:56.493Z,5.20
2023-01-22T15:23:59.127Z,5.10
2023-01-22T15:29:01.883Z,5.10
2023-01-22T15:34:04.418Z,5.10
2023-01-22T15:39:07.212Z,5.10
2023-01-22T15:44:12.503Z,4.90
2023-01-22T15:49:14.922Z,4.80
2023-01-22T15:54:17.114Z,4.70
2023-01-22T15:59:19.734Z,4.70
2023-01-22T16:04:21.932Z,4.50
2023-01-22T16:09:24.292Z,4.40
2023-01-22T16:14:28.381Z,4.30
2023-01-22T16:19:30.530Z,4.20
2023-01-22T16:24:32.729Z,4.10
2023-01-22T16:29:34.823Z,4.10
2023-01-22T16:34:36.921Z,4.10
2023-01-22T16:39:39.250Z,4.00
2023-01-22T16:44:41.365Z,4.00
2023-01-22T16:49:43.896Z,3.90
2023-01-22T16:54:47.832Z,3.70
2023-01-22T16:59:49.902Z,3.50
2023-01-22T17:04:53.315Z,3.40
2023-01-22T17:09:55.475Z,3.30
2023-01-22T17:14:58.229Z,3.10
2023-01-22T17:20:00.311Z,3.00
2023-01-22T17:25:02.590Z,2.90
2023-01-22T17:30:05.700Z,2.70
2023-01-22T17:35:09.874Z,2.60
2023-01-22T17:40:12.428Z,2.50
2023-01-22T17:45:14.612Z,2.40
2023-01-22T17:50:16.882Z,2.30
2023-01-22T17:55:19.043Z,2.30
2023-01-22T18:00:22.873Z,2.20
2023-01-22T18:05:26.662Z,2.10
2023-01-22T18:10:30.624Z,2.00
2023-01-22T18:15:32.794Z,2.00
2023-01-22T18:20:34.823Z,1.90
2023-01-22T18:26:04.691Z,1.80
2023-01-22T18:31:12.870Z,1.90
2023-01-22T18:36:21.500Z,1.80
2023-01-22T18:41:25.012Z,1.80
2023-01-22T18:46:34.430Z,1.70
2023-01-22T18:51:36.567Z,1.70
2023-01-22T18:56:39.251Z,1.60
2023-01-22T19:01:43.614Z,1.70
2023-01-22T19:06:48.262Z,1.70
2023-01-22T19:11:52.423Z,1.70
2023-01-22T19:16:54.863Z,1.80
2023-01-22T19:21:58.049Z,1.80
2023-01-22T19:27:00.211Z,1.80
2023-01-22T19:32:02.396Z,1.60
2023-01-22T19:37:06.442Z,1.50
2023-01-22T19:42:08.506Z,1.50
2023-01-22T19:47:11.253Z,1.60
2023-01-22T19:52:13.523Z,1.40
2023-01-22T19:57:15.990Z,1.30
2023-01-22T20:02:20.781Z,1.10
2023-01-22T20:07:25.148Z,1.20
2023-01-22T20:12:27.496Z,0.90
2023-01-22T20:17:29.551Z,0.90
2023-01-22T20:22:32.152Z,0.90
2023-01-22T20:27:36.366Z,1.00
2023-01-22T20:32:38.404Z,0.90
2023-01-22T20:37:40.431Z,1.00
2023-01-22T20:42:44.068Z,0.90
2023-01-22T20:47:46.071Z,0.60
2023-01-22T20:52:48.817Z,0.50
2023-01-22T20:57:51.353Z,0.40
2023-01-22T21:02:53.393Z,0.50
2023-01-22T21:07:55.500Z,0.50
2023-01-22T21:12:57.666Z,0.40
2023-01-22T21:18:00.009Z,0.40
2023-01-22T21:23:02.177Z,0.40
2023-01-22T21:28:04.347Z,0.30
2023-01-22T21:33:06.443Z,0.20
2023-01-22T21:38:08.442Z,0.10
2023-01-22T21:43:33.725Z,0.30
2023-01-22T21:48:36.977Z,0.30
2023-01-22T21:53:39.181Z,0.10
2023-01-22T21:58:45.198Z,0.10
2023-01-22T22:03:47.431Z,0.00
2023-01-22T22:08:49.439Z,-0.10
2023-01-22T22:13:54.134Z,-0.10
2023-01-22T22:18:56.806Z,-0.10
2023-01-22T22:23:58.999Z,-0.10
2023-01-22T22:29:01.537Z,-0.20
2023-01-22T22:34:03.702Z,-0.20
2023-01-22T22:39:06.627Z,-0.30
2023-01-22T22:44:10.378Z,-0.20
2023-01-22T22:49:13.566Z,-0.20
2023-01-22T22:54:17.732Z,-0.30
2023-01-22T22:59:20.971Z,-0.30
2023-01-22T23:04:23.425Z,-0.30
2023-01-22T23:09:25.845Z,-0.30
2023-01-22T23:14:28.039Z,-0.40
2023-01-22T23:19:30.384Z,-0.50
2023-01-22T23:24:32.464Z,-0.50
2023-01-22T23:29:34.561Z,-0.60
2023-01-22T23:34:37.616Z,-0.50
2023-01-22T23:39:39.806Z,-0.40
2023-01-22T23:44:41.990Z,-0.40
2023-01-22T23:49:44.125Z,-0.50
2023-01-22T23:54:46.366Z,-0.40
2023-01-22T23:59:50.009Z,-0.40
